Portada
METAR-TAF:

METAR-TAF

Aeropuertos :

Ziguinchor, Senegal

latitud: 12-33N, longitud: 016-16W, altitud: 26 m

Observación

El informe se hizo hace 1 hora y 2 minutos, a las 14:00 UTC
Viento 4 kt del noroeste
Temperatura 32°C
Humedad 71%
Presión 1013 hPa
Visibilidad 10 km o más
Cielo nuboso a una altura de 1500 ft

METAR: GOGG 141400Z 32004KT 9999 BKN015 32/26 Q1013

Hora: 15:02 (15:02 UTC)


TAF: falta

Observaciones y pronósticos meteorológicos de más de 4000 aeropuertos (mensajes METAR y TAF).

Los puntos amarillos y rojos representan las estaciones disponibles.

Ponga el ratón en el punto deseado para ver el nombre de la estación.

Haga clic para ver las observaciones y los pronósticos meteorológicos.

Para cambiar el mapa : haga clic en los botones verdes con una cruz de color negro para hacer un zoom, en el botón verde con un guión para alejar o en las flechas verdes para mapas adyacentes.


METAR-TAF: